Time;durP1;ratioP1;P1;durP2;ratioP2;P2;SDS_P1;SDS_P2;PMS_P1;PMS_P2;Temp;Humidity;BMP_temperature;BMP_pressure;BME280_temperature;BME280_humidity;BME280_pressure;Samples;Min_cycle;Max_cycle;Signal;HPM_P1;HPM_P2
2021/11/07 00:06:49;;;;;;;;;;;12.70;99.90;;;;;;6144305;23;19905;-79
2021/11/07 00:12:02;;;;;;;;;;;12.60;99.90;;;;;;6143145;23;19916;-78
2021/11/07 00:14:28;;;;;;;;;;;12.60;99.90;;;;;;6132778;23;20003;-79
2021/11/07 00:16:55;;;;;;;;;;;12.60;99.90;;;;;;6132200;23;20293;-79
2021/11/07 00:19:31;;;;;;;;;;;12.60;99.90;;;;;;6132734;23;19928;-79
2021/11/07 00:25:27;;;;;;;;;;;12.60;99.90;;;;;;6136386;23;19908;-79
2021/11/07 00:27:33;;;;;;;;;;;12.60;99.90;;;;;;6127494;23;19905;-79
2021/11/07 00:33:03;;;;;;;;;;;12.60;99.90;;;;;;6137014;23;19935;-79
2021/11/07 00:38:17;;;;;;;;;;;12.50;99.90;;;;;;6137086;23;19913;-78
2021/11/07 00:43:24;;;;;;;;;;;12.50;99.90;;;;;;6136588;23;20372;-78
2021/11/07 00:46:06;;;;;;;;;;;12.40;99.90;;;;;;6137010;23;19913;-77
2021/11/07 00:48:45;;;;;;;;;;;12.40;99.90;;;;;;6136967;23;19905;-79
2021/11/07 00:51:29;;;;;;;;;;;12.40;99.90;;;;;;6135616;23;19905;-79
2021/11/07 01:01:36;;;;;;;;;;;12.20;99.90;;;;;;6137065;23;19963;-79
2021/11/07 01:04:03;;;;;;;;;;;12.20;99.90;;;;;;6138089;23;19932;-79
2021/11/07 01:06:30;;;;;;;;;;;12.20;99.90;;;;;;6112767;23;19905;-78
2021/11/07 01:08:55;;;;;;;;;;;12.30;99.90;;;;;;6136142;23;19905;-79
2021/11/07 01:11:21;;;;;;;;;;;12.30;99.90;;;;;;6135883;23;19948;-79
2021/11/07 01:13:47;;;;;;;;;;;12.40;99.90;;;;;;6135081;23;19905;-79
2021/11/07 01:16:13;;;;;;;;;;;12.40;99.90;;;;;;6134468;23;19905;-79
2021/11/07 01:18:39;;;;;;;;;;;12.40;99.90;;;;;;6132612;23;20223;-79
2021/11/07 01:21:05;;;;;;;;;;;12.40;99.90;;;;;;6134078;23;19909;-79
2021/11/07 01:23:41;;;;;;;;;;;12.40;99.90;;;;;;6134762;23;19929;-78
2021/11/07 01:26:19;;;;;;;;;;;12.40;99.90;;;;;;6133890;23;19988;-78
2021/11/07 01:28:56;;;;;;;;;;;12.40;99.90;;;;;;6133969;23;19929;-79
2021/11/07 01:31:21;;;;;;;;;;;12.40;99.90;;;;;;6134635;23;19929;-79
2021/11/07 01:33:47;;;;;;;;;;;12.40;99.90;;;;;;6109093;23;19980;-80
2021/11/07 01:36:29;;;;;;;;;;;12.20;99.90;;;;;;6111332;23;19911;-78
2021/11/07 01:39:07;;;;;;;;;;;12.00;99.90;;;;;;6139205;23;19905;-79
2021/11/07 01:41:43;;;;;;;;;;;11.90;99.90;;;;;;6137557;23;19909;-79
2021/11/07 01:44:10;;;;;;;;;;;11.90;99.90;;;;;;6139325;23;19916;-79
2021/11/07 01:46:40;;;;;;;;;;;11.90;99.90;;;;;;6138440;23;20315;-78
2021/11/07 01:49:11;;;;;;;;;;;11.90;99.90;;;;;;6135165;23;19905;-78
2021/11/07 01:51:45;;;;;;;;;;;11.80;99.90;;;;;;6135819;23;19956;-79
2021/11/07 01:56:42;;;;;;;;;;;11.70;99.90;;;;;;6142322;23;20184;-78
2021/11/07 01:59:08;;;;;;;;;;;11.60;99.90;;;;;;6134414;23;19919;-78
2021/11/07 02:01:34;;;;;;;;;;;11.60;99.90;;;;;;6136691;23;19909;-78
2021/11/07 02:04:00;;;;;;;;;;;11.60;99.90;;;;;;6135288;23;19912;-78
2021/11/07 02:06:26;;;;;;;;;;;11.60;99.90;;;;;;6133722;23;19963;-78
2021/11/07 02:08:52;;;;;;;;;;;11.60;99.90;;;;;;6105266;23;19912;-78
2021/11/07 02:11:18;;;;;;;;;;;11.70;99.90;;;;;;6106091;23;20542;-78
2021/11/07 02:13:45;;;;;;;;;;;11.70;99.90;;;;;;6132704;23;19905;-78
2021/11/07 02:16:11;;;;;;;;;;;11.60;99.90;;;;;;6106568;23;19915;-79
2021/11/07 02:18:37;;;;;;;;;;;11.60;99.90;;;;;;6131877;23;20329;-78
2021/11/07 02:21:04;;;;;;;;;;;11.60;99.90;;;;;;6134773;23;19909;-78
2021/11/07 02:23:31;;;;;;;;;;;11.60;99.90;;;;;;6109773;23;20238;-77
2021/11/07 02:26:01;;;;;;;;;;;11.60;99.90;;;;;;6134924;23;20003;-78
2021/11/07 02:28:37;;;;;;;;;;;11.60;99.90;;;;;;6135175;23;19989;-78
2021/11/07 02:31:04;;;;;;;;;;;11.60;99.90;;;;;;6134169;23;19991;-78
2021/11/07 02:33:30;;;;;;;;;;;11.60;99.90;;;;;;6134087;23;20227;-78
2021/11/07 02:35:55;;;;;;;;;;;11.50;99.90;;;;;;6109107;23;19909;-78
2021/11/07 02:38:21;;;;;;;;;;;11.50;99.90;;;;;;6134460;23;19905;-78
2021/11/07 02:40:47;;;;;;;;;;;11.50;99.90;;;;;;6132588;23;19909;-78
2021/11/07 02:43:13;;;;;;;;;;;11.50;99.90;;;;;;6134018;23;19940;-78
2021/11/07 02:45:39;;;;;;;;;;;11.60;99.90;;;;;;6133925;23;19924;-78
2021/11/07 02:48:04;;;;;;;;;;;11.60;99.90;;;;;;6134666;23;19905;-78
2021/11/07 02:50:30;;;;;;;;;;;11.60;99.90;;;;;;6135207;23;20245;-78
2021/11/07 02:52:56;;;;;;;;;;;11.60;99.90;;;;;;6134786;23;19905;-78
2021/11/07 02:55:23;;;;;;;;;;;11.70;99.90;;;;;;6135315;23;19911;-78
2021/11/07 02:57:52;;;;;;;;;;;11.70;99.90;;;;;;6135589;23;19905;-79
2021/11/07 03:00:19;;;;;;;;;;;11.70;99.90;;;;;;6134679;23;19908;-78
2021/11/07 03:02:45;;;;;;;;;;;11.80;99.90;;;;;;6110582;23;19905;-78
2021/11/07 03:05:11;;;;;;;;;;;11.80;99.90;;;;;;6136233;23;19905;-80
2021/11/07 03:07:40;;;;;;;;;;;11.90;99.90;;;;;;6134317;23;19904;-79
2021/11/07 03:10:06;;;;;;;;;;;11.90;99.90;;;;;;6108043;23;19905;-78
2021/11/07 03:12:31;;;;;;;;;;;11.90;99.90;;;;;;6134056;23;19940;-78
2021/11/07 03:14:57;;;;;;;;;;;11.90;99.90;;;;;;6134017;23;20237;-78
2021/11/07 03:17:25;;;;;;;;;;;11.80;99.90;;;;;;6132541;23;19912;-78
2021/11/07 03:19:51;;;;;;;;;;;11.70;99.90;;;;;;6133286;23;19956;-78
2021/11/07 03:22:18;;;;;;;;;;;11.80;99.90;;;;;;6133441;23;19908;-78
2021/11/07 03:24:45;;;;;;;;;;;11.70;99.90;;;;;;6133752;23;19905;-78
2021/11/07 03:27:17;;;;;;;;;;;11.70;99.90;;;;;;6132174;23;19912;-80
2021/11/07 03:29:47;;;;;;;;;;;11.60;99.90;;;;;;6133698;23;20374;-78
2021/11/07 03:32:21;;;;;;;;;;;11.70;99.90;;;;;;6133430;23;19913;-78
2021/11/07 03:34:50;;;;;;;;;;;11.70;99.90;;;;;;6135419;23;19909;-78
2021/11/07 03:37:22;;;;;;;;;;;11.70;99.90;;;;;;6108305;23;19905;-78
2021/11/07 03:39:48;;;;;;;;;;;11.70;99.90;;;;;;6108049;23;19916;-78
2021/11/07 03:42:14;;;;;;;;;;;11.70;99.90;;;;;;6107548;23;19908;-78
2021/11/07 03:44:40;;;;;;;;;;;11.60;99.90;;;;;;6108848;23;19944;-78
2021/11/07 03:47:06;;;;;;;;;;;11.60;99.90;;;;;;6109023;23;19959;-78
2021/11/07 03:49:32;;;;;;;;;;;11.50;99.90;;;;;;6107672;23;19905;-79
2021/11/07 03:51:58;;;;;;;;;;;11.60;99.90;;;;;;6132198;23;19940;-79
2021/11/07 03:54:26;;;;;;;;;;;11.60;99.90;;;;;;6106619;23;19929;-78
2021/11/07 03:56:51;;;;;;;;;;;11.60;99.90;;;;;;6105477;23;19929;-78
2021/11/07 03:59:17;;;;;;;;;;;11.60;99.90;;;;;;6131665;23;19944;-78
2021/11/07 04:01:43;;;;;;;;;;;11.60;99.90;;;;;;6134529;23;19933;-79
2021/11/07 04:04:09;;;;;;;;;;;11.60;99.90;;;;;;6134168;23;19916;-79
2021/11/07 04:06:36;;;;;;;;;;;11.60;99.90;;;;;;6134407;23;19905;-81
2021/11/07 04:09:03;;;;;;;;;;;11.70;99.90;;;;;;6132248;23;19905;-78
2021/11/07 04:11:28;;;;;;;;;;;11.70;99.90;;;;;;6129878;23;19905;-78
2021/11/07 04:13:54;;;;;;;;;;;11.80;99.90;;;;;;6133517;23;19953;-79
2021/11/07 04:16:20;;;;;;;;;;;11.80;99.90;;;;;;6107937;23;19905;-78
2021/11/07 04:18:46;;;;;;;;;;;11.80;99.90;;;;;;6135100;23;19953;-79
2021/11/07 04:21:12;;;;;;;;;;;11.80;99.90;;;;;;6144273;23;19909;-78
2021/11/07 04:23:38;;;;;;;;;;;11.90;99.90;;;;;;6151769;23;19908;-78
2021/11/07 04:26:05;;;;;;;;;;;11.80;99.90;;;;;;6152402;23;19941;-78
2021/11/07 04:28:31;;;;;;;;;;;11.80;99.90;;;;;;6118578;23;19916;-78
2021/11/07 04:30:57;;;;;;;;;;;11.80;99.90;;;;;;6133175;23;19905;-78
2021/11/07 04:33:23;;;;;;;;;;;11.70;99.90;;;;;;6133237;23;19928;-78
2021/11/07 04:35:48;;;;;;;;;;;11.70;99.90;;;;;;6132282;23;20396;-79
2021/11/07 04:38:14;;;;;;;;;;;11.70;99.90;;;;;;6132253;23;19905;-78
2021/11/07 04:40:40;;;;;;;;;;;11.70;99.90;;;;;;6106138;23;19937;-78
2021/11/07 04:43:06;;;;;;;;;;;11.80;99.90;;;;;;6132023;23;19911;-78
2021/11/07 04:45:32;;;;;;;;;;;11.70;99.90;;;;;;6132111;23;19913;-79
2021/11/07 04:47:58;;;;;;;;;;;11.70;99.90;;;;;;6130604;23;19905;-78
2021/11/07 04:50:23;;;;;;;;;;;11.60;99.90;;;;;;6129816;23;19936;-78
2021/11/07 04:52:49;;;;;;;;;;;11.60;99.90;;;;;;6130833;23;20590;-78
2021/11/07 04:55:15;;;;;;;;;;;11.60;99.90;;;;;;6132133;23;19905;-78
2021/11/07 04:57:42;;;;;;;;;;;11.70;99.90;;;;;;6105344;23;19964;-78
2021/11/07 05:00:09;;;;;;;;;;;11.60;99.90;;;;;;6104802;23;19949;-79
2021/11/07 05:02:35;;;;;;;;;;;11.60;99.90;;;;;;6131232;23;19905;-78
2021/11/07 05:05:00;;;;;;;;;;;11.60;99.90;;;;;;6107038;23;19905;-78
2021/11/07 05:07:26;;;;;;;;;;;11.60;99.90;;;;;;6131706;23;19905;-78
2021/11/07 05:09:52;;;;;;;;;;;11.70;99.90;;;;;;6133342;23;20253;-79
2021/11/07 05:12:18;;;;;;;;;;;11.80;99.90;;;;;;6136113;23;19905;-79
2021/11/07 05:14:43;;;;;;;;;;;11.80;99.90;;;;;;6136688;23;19948;-81
2021/11/07 05:17:09;;;;;;;;;;;11.90;99.90;;;;;;6135934;23;20334;-78
2021/11/07 05:19:36;;;;;;;;;;;11.90;99.90;;;;;;6109004;23;19904;-78
2021/11/07 05:22:03;;;;;;;;;;;11.90;99.90;;;;;;6136051;23;19952;-79
2021/11/07 05:24:28;;;;;;;;;;;11.90;99.90;;;;;;6135987;23;19990;-79
2021/11/07 05:26:54;;;;;;;;;;;12.00;99.90;;;;;;6134832;23;19909;-78
2021/11/07 05:29:20;;;;;;;;;;;12.00;99.90;;;;;;6135927;23;20334;-79
2021/11/07 05:31:46;;;;;;;;;;;12.10;99.90;;;;;;6133169;23;19905;-78
2021/11/07 05:34:11;;;;;;;;;;;12.10;99.90;;;;;;6135536;23;20522;-78
2021/11/07 05:36:40;;;;;;;;;;;12.10;99.90;;;;;;6136375;23;19913;-79
2021/11/07 05:39:07;;;;;;;;;;;12.10;99.90;;;;;;6136409;23;19909;-78
2021/11/07 05:41:34;;;;;;;;;;;12.10;99.90;;;;;;6135640;23;19963;-80
2021/11/07 05:43:59;;;;;;;;;;;12.20;99.90;;;;;;6111181;23;19909;-79
2021/11/07 05:46:25;;;;;;;;;;;12.30;99.90;;;;;;6110285;23;19905;-79
2021/11/07 05:48:51;;;;;;;;;;;12.30;99.90;;;;;;6111903;23;20412;-79
2021/11/07 05:51:18;;;;;;;;;;;12.30;99.90;;;;;;6110858;23;19915;-79
2021/11/07 05:53:44;;;;;;;;;;;12.30;99.90;;;;;;6137341;23;19909;-79
2021/11/07 05:56:10;;;;;;;;;;;12.40;99.90;;;;;;6137080;23;19956;-80
2021/11/07 05:58:35;;;;;;;;;;;12.40;99.90;;;;;;6136252;23;19992;-79
2021/11/07 06:01:02;;;;;;;;;;;12.30;99.90;;;;;;6135891;23;20440;-79
2021/11/07 06:03:28;;;;;;;;;;;12.40;99.90;;;;;;6137070;23;19905;-78
2021/11/07 06:05:54;;;;;;;;;;;12.40;99.90;;;;;;6136159;23;19911;-78
2021/11/07 06:08:19;;;;;;;;;;;12.50;99.90;;;;;;6134518;23;20313;-79
2021/11/07 06:10:45;;;;;;;;;;;12.60;99.90;;;;;;6136498;23;19924;-78
2021/11/07 06:13:11;;;;;;;;;;;12.50;99.90;;;;;;6136153;23;19984;-78
2021/11/07 06:15:37;;;;;;;;;;;12.60;99.90;;;;;;6136229;23;20223;-80
2021/11/07 06:18:03;;;;;;;;;;;12.60;99.90;;;;;;6136110;23;19905;-78
2021/11/07 06:20:28;;;;;;;;;;;12.60;99.90;;;;;;6136692;23;19916;-79
2021/11/07 06:22:57;;;;;;;;;;;12.60;99.90;;;;;;6134525;23;19905;-79
2021/11/07 06:25:23;;;;;;;;;;;12.60;99.90;;;;;;6134774;23;19905;-78
2021/11/07 06:27:49;;;;;;;;;;;12.70;99.90;;;;;;6135147;23;19932;-78
2021/11/07 06:30:17;;;;;;;;;;;12.60;99.90;;;;;;6134504;23;20033;-79
2021/11/07 06:32:43;;;;;;;;;;;12.60;99.90;;;;;;6134237;23;19905;-79
2021/11/07 06:35:10;;;;;;;;;;;12.60;99.90;;;;;;6131811;23;19949;-78
2021/11/07 06:37:36;;;;;;;;;;;12.50;99.90;;;;;;6132395;23;20242;-78
2021/11/07 06:40:03;;;;;;;;;;;12.40;99.90;;;;;;6134826;23;19905;-78
2021/11/07 06:42:28;;;;;;;;;;;12.30;99.90;;;;;;6134185;23;19905;-78
2021/11/07 06:44:54;;;;;;;;;;;12.20;99.90;;;;;;6134245;23;20241;-78
2021/11/07 06:47:20;;;;;;;;;;;12.10;99.90;;;;;;6132728;23;19905;-78
2021/11/07 06:49:47;;;;;;;;;;;12.00;99.90;;;;;;6132376;23;20229;-78
2021/11/07 06:52:13;;;;;;;;;;;12.00;99.90;;;;;;6133638;23;19920;-80
2021/11/07 06:54:39;;;;;;;;;;;12.00;99.90;;;;;;6133833;23;19912;-79
2021/11/07 06:57:05;;;;;;;;;;;12.10;99.90;;;;;;6133130;23;20321;-78
2021/11/07 06:59:31;;;;;;;;;;;12.10;99.90;;;;;;6133869;23;20335;-79
2021/11/07 07:01:57;;;;;;;;;;;12.10;99.90;;;;;;6133157;23;19932;-79
2021/11/07 07:04:23;;;;;;;;;;;12.20;99.90;;;;;;6108918;23;19916;-79
2021/11/07 07:06:49;;;;;;;;;;;12.30;99.90;;;;;;6132126;23;19924;-79
2021/11/07 07:09:20;;;;;;;;;;;12.30;99.90;;;;;;6133137;23;19909;-78
2021/11/07 07:11:48;;;;;;;;;;;12.40;99.90;;;;;;6106654;23;19960;-78
2021/11/07 07:14:22;;;;;;;;;;;12.50;99.90;;;;;;6131537;23;19905;-79
2021/11/07 07:22:40;;;;;;;;;;;12.60;99.90;;;;;;6143013;23;20059;-78
2021/11/07 07:28:24;;;;;;;;;;;12.80;99.90;;;;;;6014147;23;19910;-78
2021/11/07 07:35:41;;;;;;;;;;;13.20;99.90;;;;;;6134188;23;19991;-79
2021/11/07 07:38:07;;;;;;;;;;;13.30;99.90;;;;;;6135019;23;19913;-78
2021/11/07 07:40:32;;;;;;;;;;;13.40;99.90;;;;;;6134068;23;19964;-79
2021/11/07 07:42:58;;;;;;;;;;;13.30;99.90;;;;;;6133395;23;20341;-78
2021/11/07 07:45:24;;;;;;;;;;;13.30;99.90;;;;;;6133566;23;19913;-78
2021/11/07 07:47:49;;;;;;;;;;;13.50;99.90;;;;;;6135079;23;20222;-79
2021/11/07 07:50:17;;;;;;;;;;;13.40;99.90;;;;;;6136596;23;19912;-78
2021/11/07 07:52:43;;;;;;;;;;;13.50;99.90;;;;;;6106362;23;19905;-77
2021/11/07 07:55:10;;;;;;;;;;;13.50;99.90;;;;;;6129679;23;19972;-76
2021/11/07 07:57:36;;;;;;;;;;;13.50;99.90;;;;;;6127519;23;20003;-76
2021/11/07 08:00:06;;;;;;;;;;;13.40;99.90;;;;;;6128066;23;19905;-76
2021/11/07 08:02:31;;;;;;;;;;;13.30;99.90;;;;;;6128161;23;19905;-76
2021/11/07 08:04:57;;;;;;;;;;;13.30;99.90;;;;;;6128379;23;20175;-77
2021/11/07 08:07:24;;;;;;;;;;;13.50;99.90;;;;;;6128948;23;19905;-74
2021/11/07 08:09:50;;;;;;;;;;;13.40;99.90;;;;;;6129133;23;19915;-77
2021/11/07 08:12:16;;;;;;;;;;;13.60;99.90;;;;;;6127731;23;19913;-77
2021/11/07 08:14:41;;;;;;;;;;;13.70;99.90;;;;;;6127322;23;19937;-77
2021/11/07 08:17:07;;;;;;;;;;;13.70;99.90;;;;;;6128215;23;19920;-76
2021/11/07 08:19:33;;;;;;;;;;;13.70;99.90;;;;;;6129649;23;19937;-75
2021/11/07 08:21:58;;;;;;;;;;;13.70;99.90;;;;;;6129092;23;20010;-76
2021/11/07 08:24:24;;;;;;;;;;;13.80;99.90;;;;;;6129764;23;19905;-77
2021/11/07 08:26:50;;;;;;;;;;;13.90;99.90;;;;;;6128472;23;19912;-76
2021/11/07 08:29:17;;;;;;;;;;;13.90;99.90;;;;;;6131393;23;19905;-77
2021/11/07 08:31:45;;;;;;;;;;;14.00;99.90;;;;;;6133145;23;20031;-76
2021/11/07 08:34:11;;;;;;;;;;;14.00;99.90;;;;;;6131450;23;19912;-77
2021/11/07 08:36:53;;;;;;;;;;;14.10;99.90;;;;;;6106424;23;19905;-79
2021/11/07 08:39:22;;;;;;;;;;;14.20;99.90;;;;;;6132810;23;19912;-76
2021/11/07 08:42:01;;;;;;;;;;;14.30;99.90;;;;;;6132282;23;19932;-77
2021/11/07 09:00:59;;;;;;;;;;;16.70;99.90;;;;;;6126692;23;20015;-71
2021/11/07 09:04:26;;;;;;;;;;;16.80;99.90;;;;;;6128593;23;19971;-77
2021/11/07 09:08:46;;;;;;;;;;;16.60;99.90;;;;;;6127854;23;19905;-76
2021/11/07 09:11:13;;;;;;;;;;;16.50;99.90;;;;;;6100574;23;19920;-75
2021/11/07 09:13:39;;;;;;;;;;;16.30;99.90;;;;;;6127255;23;19931;-76
2021/11/07 09:16:07;;;;;;;;;;;16.00;99.90;;;;;;6126657;23;19905;-75
2021/11/07 09:18:33;;;;;;;;;;;15.80;99.90;;;;;;6126852;23;19905;-75
2021/11/07 09:24:05;;;;;;;;;;;15.60;99.90;;;;;;6122343;23;19936;-76
2021/11/07 09:26:42;;;;;;;;;;;15.70;99.90;;;;;;6125338;23;19905;-75
2021/11/07 09:29:21;;;;;;;;;;;15.80;99.90;;;;;;6126644;23;19952;-76
2021/11/07 09:34:35;;;;;;;;;;;16.10;99.90;;;;;;6137389;23;19905;-78
2021/11/07 09:37:07;;;;;;;;;;;16.30;99.90;;;;;;6126649;23;19915;-78
2021/11/07 09:39:47;;;;;;;;;;;16.30;99.90;;;;;;6127321;23;20237;-77
2021/11/07 09:44:40;;;;;;;;;;;17.20;99.90;;;;;;6128056;23;19923;-77
2021/11/07 09:47:08;;;;;;;;;;;17.90;99.90;;;;;;6128784;23;19912;-78
2021/11/07 09:49:43;;;;;;;;;;;18.50;99.90;;;;;;6122050;23;19924;-77
2021/11/07 09:52:13;;;;;;;;;;;18.90;99.90;;;;;;6151135;23;19909;-77
2021/11/07 09:54:44;;;;;;;;;;;18.50;99.90;;;;;;6149489;23;19897;-78
2021/11/07 09:57:12;;;;;;;;;;;17.70;99.90;;;;;;6127940;23;19905;-78
2021/11/07 09:59:38;;;;;;;;;;;16.80;99.90;;;;;;6127915;23;19920;-77
2021/11/07 10:02:04;;;;;;;;;;;16.40;99.90;;;;;;6128084;23;19948;-77
2021/11/07 10:04:36;;;;;;;;;;;16.10;99.90;;;;;;6127996;23;19940;-75
2021/11/07 10:07:13;;;;;;;;;;;15.90;99.90;;;;;;6127190;23;20342;-77
2021/11/07 10:09:41;;;;;;;;;;;16.00;99.90;;;;;;6126912;23;19909;-77
2021/11/07 10:12:10;;;;;;;;;;;16.10;99.90;;;;;;6128992;23;19936;-77
2021/11/07 10:14:41;;;;;;;;;;;16.10;99.90;;;;;;6102178;23;20095;-77
2021/11/07 10:17:25;;;;;;;;;;;16.00;99.90;;;;;;6128367;23;19944;-76
2021/11/07 10:22:41;;;;;;;;;;;15.80;99.90;;;;;;6132696;23;20314;-77
2021/11/07 10:25:15;;;;;;;;;;;15.60;99.90;;;;;;6128904;23;20219;-77
2021/11/07 10:27:42;;;;;;;;;;;15.70;99.90;;;;;;6128363;23;19979;-77
2021/11/07 10:30:21;;;;;;;;;;;15.60;99.90;;;;;;6100655;23;20009;-76
2021/11/07 10:39:05;;;;;;;;;;;15.30;99.90;;;;;;6128244;23;19927;-77
2021/11/07 10:52:41;;;;;;;;;;;15.40;99.90;;;;;;6128312;23;19919;-77
2021/11/07 10:55:21;;;;;;;;;;;15.50;99.90;;;;;;6127853;23;19972;-77
2021/11/07 10:58:04;;;;;;;;;;;15.60;99.90;;;;;;6104541;23;19905;-75
2021/11/07 11:00:35;;;;;;;;;;;15.70;99.90;;;;;;6105162;23;20308;-77
2021/11/07 11:03:04;;;;;;;;;;;15.70;99.90;;;;;;6130610;23;20384;-75
2021/11/07 11:05:35;;;;;;;;;;;15.60;99.90;;;;;;6142752;23;19905;-77
2021/11/07 11:08:04;;;;;;;;;;;15.60;99.90;;;;;;6139162;23;19905;-76
2021/11/07 11:13:33;;;;;;;;;;;15.60;99.90;;;;;;6097161;23;19905;-76
2021/11/07 11:22:47;;;;;;;;;;;15.60;99.90;;;;;;6100242;23;19940;-77
2021/11/07 11:27:43;;;;;;;;;;;15.60;99.90;;;;;;6137269;23;19905;-76
2021/11/07 11:32:53;;;;;;;;;;;15.10;99.90;;;;;;6133691;23;19941;-77
2021/11/07 11:42:53;;;;;;;;;;;15.00;99.90;;;;;;6142161;23;19905;-81
2021/11/07 11:45:24;;;;;;;;;;;15.00;99.90;;;;;;6132007;23;19913;-77
2021/11/07 11:48:20;;;;;;;;;;;14.80;99.90;;;;;;6131304;23;19952;-79
2021/11/07 11:56:01;;;;;;;;;;;14.80;99.90;;;;;;6131254;23;19909;-77
2021/11/07 11:58:50;;;;;;;;;;;15.00;99.90;;;;;;6131253;23;20102;-77
2021/11/07 12:01:30;;;;;;;;;;;15.00;99.90;;;;;;6131822;23;19948;-81
2021/11/07 12:04:23;;;;;;;;;;;15.10;99.90;;;;;;6131455;23;19939;-77
2021/11/07 12:06:53;;;;;;;;;;;15.10;99.90;;;;;;6131825;23;19905;-77
2021/11/07 12:12:06;;;;;;;;;;;15.00;99.90;;;;;;6132278;23;20256;-77
2021/11/07 12:14:52;;;;;;;;;;;15.00;99.90;;;;;;6131973;23;19924;-79
2021/11/07 12:17:25;;;;;;;;;;;14.90;99.90;;;;;;6131497;23;20067;-77
2021/11/07 12:19:51;;;;;;;;;;;14.80;99.90;;;;;;6130831;23;19911;-79
2021/11/07 12:22:22;;;;;;;;;;;14.50;99.90;;;;;;6126719;23;19909;-76
2021/11/07 12:24:48;;;;;;;;;;;14.40;99.90;;;;;;6127339;23;19932;-76
2021/11/07 12:27:22;;;;;;;;;;;14.40;99.90;;;;;;6125353;23;20318;-77
2021/11/07 12:29:50;;;;;;;;;;;14.40;99.90;;;;;;6126876;23;20257;-76
2021/11/07 12:32:16;;;;;;;;;;;14.40;99.90;;;;;;6126891;23;20252;-77
2021/11/07 12:35:17;;;;;;;;;;;14.40;99.90;;;;;;6126528;23;19911;-78
2021/11/07 12:40:39;;;;;;;;;;;14.30;99.90;;;;;;6127205;23;20284;-76
2021/11/07 12:43:06;;;;;;;;;;;14.30;99.90;;;;;;6126289;23;19912;-79
2021/11/07 12:45:39;;;;;;;;;;;14.40;99.90;;;;;;6127241;23;19913;-79
2021/11/07 12:48:07;;;;;;;;;;;14.30;99.90;;;;;;6100122;23;19996;-76
2021/11/07 12:50:54;;;;;;;;;;;14.40;99.90;;;;;;6126799;23;19905;-77
2021/11/07 12:53:20;;;;;;;;;;;14.50;99.90;;;;;;6126400;23;20142;-76
2021/11/07 12:55:46;;;;;;;;;;;14.70;99.90;;;;;;6126841;23;19904;-77
2021/11/07 12:58:13;;;;;;;;;;;14.70;99.90;;;;;;6126919;23;20313;-76
2021/11/07 13:00:39;;;;;;;;;;;14.80;99.90;;;;;;6126618;23;19913;-79
2021/11/07 13:03:06;;;;;;;;;;;14.80;99.90;;;;;;6126505;23;19912;-76
2021/11/07 13:05:36;;;;;;;;;;;14.80;99.90;;;;;;6126021;23;19913;-76
2021/11/07 13:08:06;;;;;;;;;;;14.90;99.90;;;;;;6126551;23;19987;-76
2021/11/07 13:13:25;;;;;;;;;;;15.10;99.90;;;;;;6136833;23;20333;-76
2021/11/07 13:29:20;;;;;;;;;;;15.20;99.90;;;;;;6136475;23;19928;-76
2021/11/07 13:32:15;;;;;;;;;;;15.20;99.90;;;;;;6127805;23;19905;-78
2021/11/07 13:34:51;;;;;;;;;;;15.20;99.90;;;;;;6128865;23;20253;-76
2021/11/07 13:37:21;;;;;;;;;;;15.10;99.90;;;;;;6101986;23;19905;-77
2021/11/07 13:39:46;;;;;;;;;;;15.20;99.90;;;;;;6127822;23;20186;-76
2021/11/07 13:42:14;;;;;;;;;;;15.20;99.90;;;;;;6128791;23;20237;-76
2021/11/07 13:44:46;;;;;;;;;;;15.20;99.90;;;;;;6128170;23;20338;-76
2021/11/07 13:47:12;;;;;;;;;;;15.20;99.90;;;;;;6128880;23;19913;-76
2021/11/07 13:49:51;;;;;;;;;;;15.30;99.90;;;;;;6128303;23;19912;-77
2021/11/07 13:52:17;;;;;;;;;;;15.30;99.90;;;;;;6104467;23;20240;-76
2021/11/07 13:54:44;;;;;;;;;;;15.30;99.90;;;;;;6129605;23;19905;-75
2021/11/07 13:57:10;;;;;;;;;;;15.30;99.90;;;;;;6128163;23;19908;-78
2021/11/07 13:59:39;;;;;;;;;;;15.30;99.90;;;;;;6128011;23;19916;-76
2021/11/07 14:02:10;;;;;;;;;;;15.30;99.90;;;;;;6128524;23;19964;-75
2021/11/07 14:04:39;;;;;;;;;;;15.30;99.90;;;;;;6128104;23;20219;-77
2021/11/07 14:07:19;;;;;;;;;;;15.20;99.90;;;;;;6127061;23;19919;-77
2021/11/07 14:09:54;;;;;;;;;;;15.20;99.90;;;;;;6127603;23;19933;-79
2021/11/07 14:12:54;;;;;;;;;;;15.10;99.90;;;;;;6128303;23;19941;-77
2021/11/07 14:15:22;;;;;;;;;;;15.10;99.90;;;;;;6112334;23;20409;-77
2021/11/07 14:17:49;;;;;;;;;;;15.10;99.90;;;;;;6128541;23;19912;-77
2021/11/07 14:20:32;;;;;;;;;;;15.00;99.90;;;;;;6127827;23;19992;-76
2021/11/07 14:23:07;;;;;;;;;;;15.00;99.90;;;;;;6128736;23;19905;-78
2021/11/07 14:25:43;;;;;;;;;;;14.90;99.90;;;;;;6127691;23;20521;-77
2021/11/07 14:28:19;;;;;;;;;;;14.90;99.90;;;;;;6128158;23;19951;-75
2021/11/07 14:30:45;;;;;;;;;;;14.90;99.90;;;;;;6127785;23;19979;-76
2021/11/07 14:33:15;;;;;;;;;;;14.90;99.90;;;;;;6128105;23;20325;-75
2021/11/07 14:35:44;;;;;;;;;;;14.90;99.90;;;;;;6127458;23;20246;-76
2021/11/07 14:38:18;;;;;;;;;;;14.80;99.90;;;;;;6127367;23;19908;-76
2021/11/07 14:41:23;;;;;;;;;;;14.80;99.90;;;;;;6127031;23;19927;-76
2021/11/07 14:46:52;;;;;;;;;;;14.80;99.90;;;;;;6078135;23;19913;-75
2021/11/07 14:49:49;;;;;;;;;;;14.80;99.90;;;;;;6126613;23;20016;-75
2021/11/07 14:55:02;;;;;;;;;;;14.70;99.90;;;;;;6136932;23;19913;-75
2021/11/07 15:00:04;;;;;;;;;;;14.70;99.90;;;;;;6126704;23;19975;-75
2021/11/07 15:02:46;;;;;;;;;;;14.60;99.90;;;;;;6127753;23;20436;-76
2021/11/07 15:05:25;;;;;;;;;;;14.60;99.90;;;;;;6127087;23;20380;-75
2021/11/07 15:08:05;;;;;;;;;;;14.60;99.90;;;;;;6127343;23;20344;-75
2021/11/07 15:13:33;;;;;;;;;;;14.50;99.90;;;;;;6127310;23;19909;-74
2021/11/07 15:21:25;;;;;;;;;;;14.30;99.90;;;;;;6127805;23;19996;-75
2021/11/07 15:23:43;;;;;;;;;;;14.30;99.90;;;;;;6125729;23;19963;-75
2021/11/07 15:26:38;;;;;;;;;;;14.20;99.90;;;;;;6126361;23;20336;-75
2021/11/07 15:29:11;;;;;;;;;;;14.10;99.90;;;;;;6126779;23;19909;-75
2021/11/07 15:31:37;;;;;;;;;;;14.10;99.90;;;;;;6126450;23;19995;-76
2021/11/07 15:34:05;;;;;;;;;;;14.00;99.90;;;;;;6125595;23;20282;-75
2021/11/07 15:36:36;;;;;;;;;;;14.00;99.90;;;;;;6124819;23;19940;-75
2021/11/07 15:39:07;;;;;;;;;;;14.00;99.90;;;;;;6125962;23;19988;-75
2021/11/07 15:41:34;;;;;;;;;;;13.90;99.90;;;;;;6126126;23;19909;-75
2021/11/07 15:44:07;;;;;;;;;;;14.00;99.90;;;;;;6100555;23;20322;-74
2021/11/07 15:46:39;;;;;;;;;;;13.90;99.90;;;;;;6125869;23;20292;-75
2021/11/07 15:49:04;;;;;;;;;;;13.90;99.90;;;;;;6126807;23;20303;-74
2021/11/07 15:52:09;;;;;;;;;;;13.80;99.90;;;;;;6124756;23;19905;-74
2021/11/07 15:54:27;;;;;;;;;;;13.80;99.90;;;;;;6122619;23;20341;-75
2021/11/07 15:57:07;;;;;;;;;;;13.70;99.90;;;;;;6125360;23;19952;-75
2021/11/07 16:02:20;;;;;;;;;;;13.70;99.90;;;;;;6136696;23;20243;-74
2021/11/07 16:05:05;;;;;;;;;;;13.60;99.90;;;;;;6126288;23;19909;-75
2021/11/07 16:07:35;;;;;;;;;;;13.70;99.90;;;;;;6127292;23;19937;-74
2021/11/07 16:10:12;;;;;;;;;;;13.80;99.90;;;;;;6126728;23;19981;-77
2021/11/07 16:12:46;;;;;;;;;;;13.70;99.90;;;;;;6126750;23;19905;-75
2021/11/07 16:17:40;;;;;;;;;;;13.80;99.90;;;;;;6127012;23;19932;-76
2021/11/07 16:20:12;;;;;;;;;;;13.80;99.90;;;;;;6126732;23;19932;-76
2021/11/07 16:22:43;;;;;;;;;;;13.80;99.90;;;;;;6126728;23;20040;-76
2021/11/07 16:25:09;;;;;;;;;;;13.80;99.90;;;;;;6126701;23;19909;-76
2021/11/07 16:27:35;;;;;;;;;;;13.80;99.90;;;;;;6126783;23;19937;-77
2021/11/07 16:30:03;;;;;;;;;;;13.80;99.90;;;;;;6125902;23;19913;-74
2021/11/07 16:32:34;;;;;;;;;;;13.70;99.90;;;;;;6126701;23;19909;-76
2021/11/07 16:35:12;;;;;;;;;;;13.60;99.90;;;;;;6126956;23;19909;-75
2021/11/07 16:37:44;;;;;;;;;;;13.50;99.90;;;;;;6126288;23;19905;-76
2021/11/07 16:40:20;;;;;;;;;;;13.50;99.90;;;;;;6126534;23;19913;-76
2021/11/07 16:42:45;;;;;;;;;;;13.40;99.90;;;;;;6126669;23;19913;-75
2021/11/07 16:45:11;;;;;;;;;;;13.40;99.90;;;;;;6124984;23;19924;-76
2021/11/07 16:47:40;;;;;;;;;;;13.40;99.90;;;;;;6123886;23;19912;-76
2021/11/07 16:50:08;;;;;;;;;;;13.40;99.90;;;;;;6126488;23;19912;-76
2021/11/07 16:52:33;;;;;;;;;;;13.30;99.90;;;;;;6125993;23;20096;-76
2021/11/07 16:55:10;;;;;;;;;;;13.20;99.90;;;;;;6126150;23;19909;-76
2021/11/07 16:57:37;;;;;;;;;;;13.30;99.90;;;;;;6126269;23;19904;-75
2021/11/07 17:00:16;;;;;;;;;;;13.30;99.90;;;;;;6126403;23;20333;-75
2021/11/07 17:02:47;;;;;;;;;;;13.30;99.90;;;;;;6126130;23;19961;-75
2021/11/07 17:05:21;;;;;;;;;;;13.30;99.90;;;;;;6124859;23;19936;-75
2021/11/07 17:08:36;;;;;;;;;;;13.30;99.90;;;;;;6125430;23;19905;-75
2021/11/07 17:10:33;;;;;;;;;;;13.40;99.90;;;;;;6115550;23;19905;-75
2021/11/07 17:13:01;;;;;;;;;;;13.40;99.90;;;;;;6125814;23;20329;-75